Hudson, Michigan
Current Conditions -  °F | °C
As of 3:15 PM on Monday 24 Nov 2014 (Local Time) from KJYM Reporting Station
Overcast Overcast  
Wind Chill: 27°   Ceiling: 1700
Heat Index: 37°   Visibility: 10mi
Dew Point: 32°   Wind: 20mph
Humidity: 81%   Direction: 240°WSW
Pressure: 29.4"   Gusts: 35mph
Location:  41.86°N, 84.35°W
Report Text: KJYM 242015Z AUTO 24017G30KT 10SM OVC017 03/00 A2940 RMK AO2
Loading
Personal Weather Stations






























Interactive Weather Map New forecast layout! Learn more

10-Day Weather Forecast

Advertisements
Track Severe Weather on mobile